createdAt,value
2018-06-05T00:01:00.476Z,12.77
2018-06-05T00:03:28.751Z,9.30
2018-06-05T00:05:57.166Z,10.30
2018-06-05T00:08:25.404Z,9.60
2018-06-05T00:10:53.643Z,11.37
2018-06-05T00:13:21.859Z,10.40
2018-06-05T00:15:50.132Z,10.37
2018-06-05T00:18:18.364Z,11.70
2018-06-05T00:20:46.578Z,14.93
2018-06-05T00:23:14.780Z,12.63
2018-06-05T00:25:42.936Z,11.17
2018-06-05T00:28:10.888Z,9.93
2018-06-05T00:30:39.091Z,10.40
2018-06-05T00:33:07.289Z,12.83
2018-06-05T00:35:35.731Z,10.60
2018-06-05T00:38:04.013Z,15.43
2018-06-05T00:40:32.202Z,10.77
2018-06-05T00:43:00.393Z,11.67
2018-06-05T00:45:29.832Z,13.83
2018-06-05T00:47:58.178Z,13.67
2018-06-05T00:50:26.427Z,15.53
2018-06-05T00:52:54.668Z,11.83
2018-06-05T00:55:22.970Z,12.20
2018-06-05T00:57:51.140Z,13.80
2018-06-05T01:00:19.304Z,13.17
2018-06-05T01:02:47.523Z,13.37
2018-06-05T01:05:15.832Z,13.67
2018-06-05T01:07:44.085Z,12.50
2018-06-05T01:10:12.298Z,15.83
2018-06-05T01:12:40.290Z,14.23
2018-06-05T01:15:08.506Z,13.47
2018-06-05T01:17:37.114Z,14.57
2018-06-05T01:20:05.352Z,13.93
2018-06-05T01:22:33.710Z,14.70
2018-06-05T01:25:01.941Z,14.17
2018-06-05T01:27:30.194Z,13.43
2018-06-05T01:29:58.955Z,12.10
2018-06-05T01:32:27.176Z,13.70
2018-06-05T01:34:55.400Z,12.37
2018-06-05T01:37:23.716Z,12.50
2018-06-05T01:39:51.925Z,12.67
2018-06-05T01:42:20.106Z,16.57
2018-06-05T01:44:48.319Z,12.03
2018-06-05T01:47:16.673Z,13.57
2018-06-05T01:49:44.884Z,12.47
2018-06-05T01:54:47.679Z,12.97
2018-06-05T01:57:15.960Z,11.97
2018-06-05T01:59:44.172Z,12.80
2018-06-05T02:02:12.417Z,13.60
2018-06-05T02:04:40.580Z,12.20
2018-06-05T02:07:08.848Z,11.87
2018-06-05T02:09:37.286Z,12.00
2018-06-05T02:12:05.461Z,11.30
2018-06-05T02:14:33.710Z,11.17
2018-06-05T02:17:01.954Z,10.97
2018-06-05T02:19:30.248Z,12.63
2018-06-05T02:21:59.086Z,10.67
2018-06-05T02:24:27.295Z,12.43
2018-06-05T02:26:55.594Z,10.20
2018-06-05T02:29:23.848Z,14.30
2018-06-05T02:31:52.129Z,13.73
2018-06-05T02:34:20.426Z,13.17
2018-06-05T02:36:48.782Z,11.80
2018-06-05T02:39:16.969Z,13.10
2018-06-05T02:41:45.252Z,12.63
2018-06-05T02:44:13.486Z,12.43
2018-06-05T02:46:41.904Z,11.70
2018-06-05T02:49:10.103Z,9.97
2018-06-05T02:51:38.393Z,11.87
2018-06-05T02:54:06.635Z,9.43
2018-06-05T02:56:34.679Z,10.40
2018-06-05T02:59:02.940Z,8.43
2018-06-05T03:01:31.228Z,8.83
2018-06-05T03:03:59.488Z,7.93
2018-06-05T03:06:29.181Z,7.07
2018-06-05T03:08:57.404Z,7.53
2018-06-05T03:11:25.961Z,8.57
2018-06-05T03:13:54.183Z,6.20
2018-06-05T03:16:22.636Z,8.17
2018-06-05T03:18:50.891Z,9.27
2018-06-05T03:21:19.226Z,7.73
2018-06-05T03:23:47.549Z,7.47
2018-06-05T03:26:15.936Z,7.37
2018-06-05T03:28:44.161Z,8.90
2018-06-05T03:31:12.493Z,8.57
2018-06-05T03:33:40.706Z,12.17
2018-06-05T03:36:09.083Z,10.13
2018-06-05T03:38:37.330Z,8.30
2018-06-05T03:41:05.778Z,8.73
2018-06-05T03:43:34.066Z,11.07
2018-06-05T03:46:02.431Z,8.93
2018-06-05T03:48:30.668Z,9.17
2018-06-05T03:50:59.169Z,13.70
2018-06-05T03:53:27.648Z,11.73
2018-06-05T03:55:57.026Z,11.63
2018-06-05T03:58:25.259Z,10.57
2018-06-05T04:00:53.607Z,9.93
2018-06-05T04:03:21.815Z,10.93
2018-06-05T04:05:50.049Z,12.37
2018-06-05T04:08:18.281Z,9.80
2018-06-05T04:10:46.496Z,11.13
2018-06-05T04:13:14.712Z,10.73
2018-06-05T04:15:42.738Z,13.83
2018-06-05T04:18:11.554Z,13.37
2018-06-05T04:20:39.753Z,10.50
2018-06-05T04:23:07.907Z,10.80
2018-06-05T04:25:36.293Z,14.60
2018-06-05T04:28:04.506Z,10.53
2018-06-05T04:30:32.728Z,12.30
2018-06-05T04:33:00.947Z,9.93
2018-06-05T04:35:29.285Z,9.90
2018-06-05T04:37:57.614Z,8.87
2018-06-05T04:40:25.846Z,9.47
2018-06-05T04:42:54.072Z,11.27
2018-06-05T04:45:22.331Z,11.80
2018-06-05T04:47:50.629Z,9.07
2018-06-05T04:50:18.786Z,10.60
2018-06-05T04:52:46.982Z,10.80
2018-06-05T04:55:15.261Z,7.90
2018-06-05T04:57:43.448Z,7.23
2018-06-05T05:00:11.414Z,8.47
2018-06-05T05:02:39.653Z,8.83
2018-06-05T05:05:07.973Z,8.10
2018-06-05T05:07:36.227Z,9.67
2018-06-05T05:10:04.376Z,10.67
2018-06-05T05:12:32.589Z,7.83
2018-06-05T05:15:00.758Z,8.73
2018-06-05T05:17:28.951Z,9.70
2018-06-05T05:19:57.163Z,8.77
2018-06-05T05:22:25.909Z,9.03
2018-06-05T05:24:54.132Z,8.33
2018-06-05T05:27:22.405Z,6.83
2018-06-05T05:29:50.669Z,8.80
2018-06-05T05:32:18.855Z,11.70
2018-06-05T05:34:47.091Z,7.23
2018-06-05T05:37:15.343Z,9.10
2018-06-05T05:39:43.591Z,9.13
2018-06-05T05:42:11.829Z,7.67
2018-06-05T05:44:40.040Z,5.90
2018-06-05T05:47:09.480Z,7.57
2018-06-05T05:49:37.633Z,6.80
2018-06-05T05:52:05.936Z,7.67
2018-06-05T05:54:34.121Z,6.17
2018-06-05T05:57:02.468Z,6.30
2018-06-05T05:59:30.731Z,8.73
2018-06-05T06:01:58.940Z,8.47
2018-06-05T06:04:27.187Z,8.17
2018-06-05T06:06:55.443Z,8.83
2018-06-05T06:09:23.611Z,10.53
2018-06-05T06:11:51.803Z,9.63
2018-06-05T06:14:20.004Z,10.50
2018-06-05T06:16:48.309Z,11.03
2018-06-05T06:19:16.755Z,6.37
2018-06-05T06:21:44.933Z,10.93
2018-06-05T06:24:13.189Z,5.57
2018-06-05T06:26:41.465Z,7.63
2018-06-05T06:29:09.668Z,7.43
2018-06-05T06:31:37.879Z,7.30
2018-06-05T06:34:06.075Z,8.13
2018-06-05T06:36:34.307Z,4.97
2018-06-05T06:39:02.573Z,9.27
2018-06-05T06:41:30.802Z,7.47
2018-06-05T06:43:59.026Z,7.43
2018-06-05T06:46:27.517Z,9.87
2018-06-05T06:48:55.833Z,11.80
2018-06-05T06:51:23.990Z,7.90
2018-06-05T06:53:52.193Z,10.10
2018-06-05T06:56:20.563Z,7.40
2018-06-05T06:58:48.819Z,8.80
2018-06-05T07:01:17.085Z,6.27
2018-06-05T07:03:45.298Z,7.80
2018-06-05T07:06:13.347Z,9.97
2018-06-05T07:08:41.508Z,6.50
2018-06-05T07:11:09.712Z,9.27
2018-06-05T07:13:37.943Z,5.90
2018-06-05T07:16:06.370Z,6.73
2018-06-05T07:18:34.569Z,7.90
2018-06-05T07:21:02.761Z,7.03
2018-06-05T07:23:30.959Z,7.30
2018-06-05T07:25:59.206Z,5.97
2018-06-05T07:28:28.362Z,6.77
2018-06-05T07:30:56.597Z,6.27
2018-06-05T07:33:24.789Z,9.30
2018-06-05T07:35:53.287Z,7.37
2018-06-05T07:38:21.636Z,9.57
2018-06-05T07:40:49.820Z,9.13
2018-06-05T07:43:18.063Z,9.97
2018-06-05T07:45:46.418Z,8.80
2018-06-05T07:48:14.645Z,8.63
2018-06-05T07:50:42.831Z,9.33
2018-06-05T07:53:11.082Z,6.40
2018-06-05T07:55:39.339Z,11.60
2018-06-05T07:58:07.530Z,8.60
2018-06-05T08:00:35.764Z,10.17
2018-06-05T08:03:03.936Z,9.10
2018-06-05T08:05:32.270Z,8.47
2018-06-05T08:08:00.463Z,11.90
2018-06-05T08:10:28.663Z,7.80
2018-06-05T08:12:56.883Z,6.83
2018-06-05T08:15:25.216Z,10.70
2018-06-05T08:17:53.523Z,9.57
2018-06-05T08:20:22.864Z,7.63
2018-06-05T08:22:53.100Z,8.90
2018-06-05T08:25:21.530Z,7.80
2018-06-05T08:27:49.811Z,8.60
2018-06-05T08:30:18.089Z,4.67
2018-06-05T08:32:46.862Z,8.37
2018-06-05T08:35:15.003Z,10.53
2018-06-05T08:37:43.215Z,8.87
2018-06-05T08:40:11.396Z,5.80
2018-06-05T08:42:39.615Z,5.43
2018-06-05T08:45:07.907Z,10.33
2018-06-05T08:47:36.160Z,11.00
2018-06-05T08:50:04.594Z,7.67
2018-06-05T08:52:32.830Z,10.50
2018-06-05T08:55:01.086Z,6.43
2018-06-05T08:57:29.415Z,5.40
2018-06-05T08:59:57.732Z,6.63
2018-06-05T09:02:25.956Z,5.30
2018-06-05T09:04:54.148Z,8.67
2018-06-05T09:07:22.415Z,14.20
2018-06-05T09:09:50.603Z,10.33
2018-06-05T09:12:18.559Z,10.30
2018-06-05T09:14:46.860Z,9.43
2018-06-05T09:17:15.083Z,11.60
2018-06-05T09:19:43.303Z,5.93
2018-06-05T09:22:11.294Z,9.10
2018-06-05T09:24:39.508Z,8.97
2018-06-05T09:27:07.804Z,8.03
2018-06-05T09:29:36.038Z,7.90
2018-06-05T09:32:04.334Z,11.37
2018-06-05T09:34:32.731Z,5.13
2018-06-05T09:37:01.141Z,6.47
2018-06-05T09:39:29.355Z,8.33
2018-06-05T09:41:57.604Z,6.67
2018-06-05T09:44:25.853Z,6.27
2018-06-05T09:46:53.905Z,11.17
2018-06-05T09:49:22.106Z,9.73
2018-06-05T09:51:50.353Z,9.37
2018-06-05T09:54:18.503Z,7.53
2018-06-05T09:56:46.851Z,10.53
2018-06-05T09:59:15.119Z,7.60
2018-06-05T10:01:43.254Z,8.87
2018-06-05T10:04:11.463Z,9.07
2018-06-05T10:06:39.737Z,9.87
2018-06-05T10:09:08.274Z,8.27
2018-06-05T10:11:37.313Z,7.53
2018-06-05T10:14:05.546Z,8.73
2018-06-05T10:16:33.923Z,9.60
2018-06-05T10:19:02.194Z,8.27
2018-06-05T10:21:30.340Z,9.00
2018-06-05T10:23:58.577Z,7.87
2018-06-05T10:26:26.992Z,7.80
2018-06-05T10:28:55.206Z,6.40
2018-06-05T10:31:24.151Z,8.97
2018-06-05T10:33:52.415Z,6.23
2018-06-05T10:36:21.051Z,8.40
2018-06-05T10:38:49.293Z,9.10
2018-06-05T10:41:17.555Z,6.43
2018-06-05T10:43:45.805Z,9.23
2018-06-05T10:46:14.297Z,6.90
2018-06-05T10:48:42.541Z,7.53
2018-06-05T10:51:11.152Z,5.87
2018-06-05T10:53:39.563Z,6.73
2018-06-05T10:56:07.889Z,9.70
2018-06-05T10:58:36.705Z,7.37
2018-06-05T11:01:04.945Z,9.13
2018-06-05T11:03:33.146Z,7.77
2018-06-05T11:06:01.404Z,7.57
2018-06-05T11:08:29.595Z,8.00
2018-06-05T11:10:57.794Z,11.77
2018-06-05T11:13:26.015Z,9.37
2018-06-05T11:15:54.008Z,10.77
2018-06-05T11:18:22.251Z,10.23
2018-06-05T11:20:50.439Z,11.77
2018-06-05T11:23:18.633Z,8.37
2018-06-05T11:25:47.029Z,10.10
2018-06-05T11:28:15.296Z,15.50
2018-06-05T11:30:43.482Z,10.37
2018-06-05T11:33:11.718Z,9.53
2018-06-05T11:35:40.183Z,7.93
2018-06-05T11:38:08.374Z,11.03
2018-06-05T11:40:36.562Z,9.50
2018-06-05T11:43:04.744Z,9.37
2018-06-05T11:45:33.035Z,8.40
2018-06-05T11:48:01.305Z,12.37
2018-06-05T11:50:29.587Z,18.57
2018-06-05T11:52:57.826Z,8.30
2018-06-05T11:55:26.179Z,8.95
2018-06-05T11:57:54.386Z,11.57
2018-06-05T12:00:22.621Z,9.83
2018-06-05T12:02:50.894Z,9.60
2018-06-05T12:05:19.284Z,8.87
2018-06-05T12:07:47.704Z,14.30
2018-06-05T12:10:16.084Z,10.47
2018-06-05T12:12:44.315Z,8.33
2018-06-05T12:15:12.543Z,13.90
2018-06-05T12:17:40.764Z,8.00
2018-06-05T12:20:08.648Z,10.00
2018-06-05T12:22:37.715Z,9.80
2018-06-05T12:25:06.109Z,10.33
2018-06-05T12:27:34.960Z,9.80
2018-06-05T12:30:03.190Z,12.17
2018-06-05T12:32:31.408Z,9.80
2018-06-05T12:34:59.734Z,9.47
2018-06-05T12:37:27.978Z,15.63
2018-06-05T12:39:56.507Z,7.83
2018-06-05T12:42:24.810Z,9.57
2018-06-05T12:44:52.999Z,9.90
2018-06-05T12:47:21.170Z,13.30
2018-06-05T12:49:49.406Z,12.43
2018-06-05T12:52:17.625Z,14.40
2018-06-05T12:54:46.258Z,9.87
2018-06-05T12:57:15.698Z,12.50
2018-06-05T12:59:43.870Z,11.07
2018-06-05T13:02:12.102Z,11.10
2018-06-05T13:04:40.360Z,11.53
2018-06-05T13:07:08.568Z,10.93
2018-06-05T13:09:36.753Z,11.43
2018-06-05T13:12:04.986Z,12.23
2018-06-05T13:14:33.115Z,13.73
2018-06-05T13:17:01.498Z,12.53
2018-06-05T13:19:29.799Z,9.57
2018-06-05T13:21:58.042Z,9.97
2018-06-05T13:24:26.258Z,8.40
2018-06-05T13:27:07.238Z,13.67
2018-06-05T13:29:35.487Z,13.47
2018-06-05T13:32:03.744Z,10.40
2018-06-05T13:34:31.946Z,9.63
2018-06-05T13:37:00.243Z,10.97
2018-06-05T13:39:28.384Z,15.90
2018-06-05T13:41:56.625Z,10.23
2018-06-05T13:44:25.322Z,13.63
2018-06-05T13:46:53.652Z,12.00
2018-06-05T13:49:21.833Z,9.53
2018-06-05T13:51:50.014Z,10.60
2018-06-05T13:54:18.249Z,10.43
2018-06-05T13:56:46.431Z,8.90
2018-06-05T13:59:14.637Z,9.57
2018-06-05T14:01:42.844Z,10.83
2018-06-05T14:04:11.062Z,12.43
2018-06-05T14:06:39.531Z,10.30
2018-06-05T14:09:08.337Z,12.73
2018-06-05T14:11:36.372Z,12.43
2018-06-05T14:14:04.838Z,9.50
2018-06-05T14:16:33.189Z,11.37
2018-06-05T14:19:01.469Z,11.43
2018-06-05T14:21:29.728Z,9.63
2018-06-05T14:23:58.002Z,9.07
2018-06-05T14:26:27.396Z,8.93
2018-06-05T14:28:55.903Z,14.53
2018-06-05T14:31:24.996Z,9.90
2018-06-05T14:33:53.221Z,8.63
2018-06-05T14:36:21.378Z,11.97
2018-06-05T14:38:49.380Z,10.53
2018-06-05T14:41:17.636Z,10.63
2018-06-05T14:43:45.796Z,8.97
2018-06-05T14:46:14.148Z,11.87
2018-06-05T14:48:42.375Z,11.40
2018-06-05T14:51:10.714Z,13.97
2018-06-05T14:53:38.971Z,9.37
2018-06-05T14:56:07.200Z,11.77
2018-06-05T14:58:35.435Z,9.23
2018-06-05T15:01:03.465Z,9.97
2018-06-05T15:03:31.654Z,14.07
2018-06-05T15:05:59.975Z,13.03
2018-06-05T15:08:28.193Z,8.43
2018-06-05T15:10:56.366Z,11.17
2018-06-05T15:13:24.590Z,12.03
2018-06-05T15:15:52.800Z,9.47
2018-06-05T15:18:21.082Z,7.33
2018-06-05T15:20:49.283Z,11.77
2018-06-05T15:23:17.736Z,13.47
2018-06-05T15:25:46.150Z,10.53
2018-06-05T15:28:14.388Z,10.90
2018-06-05T15:30:42.621Z,12.33
2018-06-05T15:33:10.896Z,10.33
2018-06-05T15:35:39.258Z,15.67
2018-06-05T15:38:07.577Z,10.97
2018-06-05T15:40:35.813Z,11.17
2018-06-05T15:43:04.076Z,12.67
2018-06-05T15:45:32.374Z,11.93
2018-06-05T15:48:00.611Z,10.47
2018-06-05T15:50:29.003Z,10.37
2018-06-05T15:52:57.167Z,14.50
2018-06-05T15:55:25.452Z,13.90
2018-06-05T15:57:53.746Z,14.20
2018-06-05T16:00:21.972Z,12.53
2018-06-05T16:02:50.180Z,15.87
2018-06-05T16:05:18.658Z,13.27
2018-06-05T16:07:47.270Z,15.33
2018-06-05T16:10:15.509Z,15.35
2018-06-05T16:12:43.679Z,13.13
2018-06-05T16:15:12.038Z,14.50
2018-06-05T16:17:40.316Z,15.50
2018-06-05T16:20:08.532Z,12.23
2018-06-05T16:22:36.755Z,9.40
2018-06-05T16:25:07.038Z,20.00
2018-06-05T16:27:35.279Z,15.57
2018-06-05T16:30:03.572Z,18.70
2018-06-05T16:32:31.798Z,17.43
2018-06-05T16:34:59.969Z,13.33
2018-06-05T16:37:28.145Z,13.83
2018-06-05T16:39:56.370Z,12.47
2018-06-05T16:42:24.626Z,17.57
2018-06-05T16:44:52.879Z,11.70
2018-06-05T16:47:21.115Z,13.40
2018-06-05T16:49:49.326Z,12.13
2018-06-05T16:52:17.552Z,20.97
2018-06-05T16:54:45.806Z,15.33
2018-06-05T16:57:14.199Z,17.67
2018-06-05T16:59:42.561Z,14.83
2018-06-05T17:02:10.980Z,14.30
2018-06-05T17:04:39.361Z,16.07
2018-06-05T17:07:07.491Z,12.23
2018-06-05T17:09:35.661Z,17.83
2018-06-05T17:12:03.822Z,12.30
2018-06-05T17:14:31.987Z,14.27
2018-06-05T17:17:00.411Z,14.53
2018-06-05T17:19:28.662Z,18.33
2018-06-05T17:21:56.929Z,19.93
2018-06-05T17:24:25.217Z,14.17
2018-06-05T17:26:53.416Z,14.67
2018-06-05T17:29:21.645Z,17.97
2018-06-05T17:31:49.911Z,15.40
2018-06-05T17:34:18.092Z,20.53
2018-06-05T17:36:47.383Z,23.07
2018-06-05T17:39:15.637Z,15.30
2018-06-05T17:41:44.022Z,18.77
2018-06-05T17:44:12.233Z,14.30
2018-06-05T17:46:40.449Z,16.67
2018-06-05T17:49:08.657Z,15.07
2018-06-05T17:51:36.965Z,17.43
2018-06-05T17:54:05.230Z,18.77
2018-06-05T17:56:33.313Z,23.37
2018-06-05T17:59:01.513Z,21.17
2018-06-05T18:01:30.562Z,21.87
2018-06-05T18:03:58.785Z,16.07
2018-06-05T18:06:26.763Z,18.03
2018-06-05T18:08:55.030Z,19.93
2018-06-05T18:11:23.332Z,15.70
2018-06-05T18:13:51.580Z,17.20
2018-06-05T18:16:20.118Z,13.70
2018-06-05T18:18:48.359Z,16.40
2018-06-05T18:21:16.731Z,20.37
2018-06-05T18:23:44.927Z,19.83
2018-06-05T18:26:13.288Z,18.17
2018-06-05T18:28:41.668Z,17.70
2018-06-05T18:31:09.911Z,14.83
2018-06-05T18:33:38.099Z,16.80
2018-06-05T18:36:06.503Z,12.23
2018-06-05T18:38:34.690Z,22.90
2018-06-05T18:41:02.859Z,16.73
2018-06-05T18:43:31.061Z,17.33
2018-06-05T18:45:59.491Z,22.70
2018-06-05T18:48:27.784Z,21.13
2018-06-05T18:50:56.498Z,19.13
2018-06-05T18:53:24.825Z,16.40
2018-06-05T18:55:53.188Z,17.30
2018-06-05T18:58:21.403Z,20.40
2018-06-05T19:00:49.639Z,17.27
2018-06-05T19:03:17.830Z,20.50
2018-06-05T19:05:46.178Z,17.80
2018-06-05T19:08:14.454Z,12.60
2018-06-05T19:10:42.861Z,19.47
2018-06-05T19:13:11.113Z,23.77
2018-06-05T19:15:39.457Z,17.60
2018-06-05T19:18:07.682Z,16.60
2018-06-05T19:20:35.952Z,19.03
2018-06-05T19:23:04.182Z,22.90
2018-06-05T19:25:32.573Z,21.97
2018-06-05T19:28:00.874Z,16.27
2018-06-05T19:30:29.215Z,15.83
2018-06-05T19:32:57.526Z,16.43
2018-06-05T19:35:26.969Z,18.27
2018-06-05T19:37:55.015Z,20.60
2018-06-05T19:40:23.176Z,19.90
2018-06-05T19:42:51.452Z,18.53
2018-06-05T19:45:19.817Z,18.23
2018-06-05T19:47:48.266Z,14.73
2018-06-05T19:50:16.793Z,17.27
2018-06-05T19:52:44.984Z,18.03
2018-06-05T19:55:13.261Z,21.30
2018-06-05T19:57:41.524Z,15.10
2018-06-05T20:00:09.933Z,15.97
2018-06-05T20:02:38.475Z,17.63
2018-06-05T20:05:06.759Z,22.00
2018-06-05T20:07:35.049Z,25.53
2018-06-05T20:10:03.557Z,19.87
2018-06-05T20:12:32.116Z,15.20
2018-06-05T20:15:00.526Z,20.03
2018-06-05T20:17:29.764Z,20.63
2018-06-05T20:19:58.053Z,18.80
2018-06-05T20:22:26.307Z,23.10
2018-06-05T20:24:54.734Z,17.00
2018-06-05T20:27:24.769Z,19.10
2018-06-05T20:29:53.018Z,19.30
2018-06-05T20:32:21.266Z,19.37
2018-06-05T20:34:49.700Z,20.77
2018-06-05T20:37:18.144Z,20.30
2018-06-05T20:39:46.385Z,19.93
2018-06-05T20:42:14.620Z,22.43
2018-06-05T20:44:42.859Z,18.70
2018-06-05T20:47:13.161Z,17.47
2018-06-05T20:49:41.343Z,17.53
2018-06-05T20:52:09.576Z,16.60
2018-06-05T20:54:38.040Z,17.03
2018-06-05T20:57:06.267Z,18.43
2018-06-05T20:59:34.460Z,21.10
2018-06-05T21:02:09.222Z,17.47
2018-06-05T21:04:37.557Z,17.87
2018-06-05T21:07:05.992Z,21.77
2018-06-05T21:09:35.175Z,20.80
2018-06-05T21:12:03.384Z,20.97
2018-06-05T21:14:31.707Z,18.80
2018-06-05T21:17:00.055Z,18.47
2018-06-05T21:19:28.240Z,15.13
2018-06-05T21:21:56.433Z,16.87
2018-06-05T21:24:24.781Z,15.53
2018-06-05T21:26:53.157Z,18.53
2018-06-05T21:29:21.375Z,16.63
2018-06-05T21:31:49.593Z,18.10
2018-06-05T21:34:17.846Z,21.47
2018-06-05T21:36:46.255Z,14.53
2018-06-05T21:39:14.484Z,15.40
2018-06-05T21:41:42.684Z,21.93
2018-06-05T21:44:10.927Z,17.30
2018-06-05T21:46:39.118Z,18.80
2018-06-05T21:49:07.355Z,13.93
2018-06-05T21:51:35.572Z,16.63
2018-06-05T21:54:03.795Z,18.03
2018-06-05T21:56:32.028Z,18.60
2018-06-05T21:59:00.254Z,16.57
2018-06-05T22:01:28.472Z,23.27
2018-06-05T22:03:56.636Z,19.20
2018-06-05T22:06:24.860Z,20.33
2018-06-05T22:08:53.011Z,18.57
2018-06-05T22:11:21.209Z,19.27
2018-06-05T22:13:49.474Z,17.53
2018-06-05T22:16:17.791Z,19.10
2018-06-05T22:18:45.747Z,16.30
2018-06-05T22:21:13.971Z,16.87
2018-06-05T22:23:42.345Z,19.03
2018-06-05T22:26:10.764Z,17.07
2018-06-05T22:28:39.096Z,17.03
2018-06-05T22:31:07.271Z,20.37
2018-06-05T22:33:35.605Z,18.97
2018-06-05T22:36:03.856Z,21.77
2018-06-05T22:38:32.033Z,18.10
2018-06-05T22:41:00.264Z,20.40
2018-06-05T22:43:28.544Z,19.67
2018-06-05T22:45:56.921Z,20.37
2018-06-05T22:48:25.132Z,22.50
2018-06-05T22:50:53.310Z,15.00
2018-06-05T22:53:21.599Z,15.63
2018-06-05T22:55:49.844Z,20.57
2018-06-05T22:58:18.029Z,22.13
2018-06-05T23:00:46.293Z,18.87
2018-06-05T23:03:14.575Z,24.17
2018-06-05T23:05:42.952Z,16.43
2018-06-05T23:08:11.214Z,18.87
2018-06-05T23:10:39.423Z,15.47
2018-06-05T23:13:07.646Z,19.80
2018-06-05T23:15:36.025Z,17.87
2018-06-05T23:18:04.192Z,18.73
2018-06-05T23:20:32.387Z,18.37
2018-06-05T23:23:00.584Z,22.03
2018-06-05T23:25:28.980Z,17.30
2018-06-05T23:27:57.227Z,15.37
2018-06-05T23:30:25.442Z,20.80
2018-06-05T23:32:53.638Z,16.80
2018-06-05T23:35:22.028Z,18.43
2018-06-05T23:37:50.255Z,17.67
2018-06-05T23:40:18.435Z,17.27
2018-06-05T23:42:46.690Z,18.13
2018-06-05T23:45:14.970Z,18.57
2018-06-05T23:47:43.528Z,20.90
2018-06-05T23:50:11.830Z,22.00
2018-06-05T23:52:40.093Z,19.97
2018-06-05T23:55:08.593Z,12.80
2018-06-05T23:57:36.763Z,14.07
